createdAt,value
2019-03-12T00:03:11.562Z,2.19
2019-03-12T00:08:15.794Z,2.03
2019-03-12T00:13:20.016Z,2.08
2019-03-12T00:18:24.261Z,1.99
2019-03-12T00:23:28.494Z,2.06
2019-03-12T00:28:32.725Z,1.91
2019-03-12T00:33:36.972Z,1.81
2019-03-12T00:38:41.207Z,1.69
2019-03-12T00:43:45.455Z,1.63
2019-03-12T00:48:49.687Z,1.74
2019-03-12T00:53:53.937Z,1.75
2019-03-12T00:58:58.165Z,1.78
2019-03-12T01:04:02.399Z,1.78
2019-03-12T01:09:08.971Z,1.71
2019-03-12T01:14:13.207Z,1.64
2019-03-12T01:19:17.441Z,1.77
2019-03-12T01:24:21.676Z,1.81
2019-03-12T01:29:25.909Z,1.70
2019-03-12T01:34:30.135Z,1.88
2019-03-12T01:39:34.381Z,1.91
2019-03-12T01:44:38.621Z,2.04
2019-03-12T01:49:42.870Z,1.93
2019-03-12T01:54:47.114Z,2.12
2019-03-12T01:59:51.308Z,2.12
2019-03-12T02:04:55.724Z,2.15
2019-03-12T02:09:59.964Z,2.35
2019-03-12T02:15:05.440Z,2.36
2019-03-12T02:20:12.153Z,2.44
2019-03-12T02:25:17.033Z,2.42
2019-03-12T02:30:21.693Z,2.47
2019-03-12T02:35:26.011Z,2.50
2019-03-12T02:40:30.254Z,2.56
2019-03-12T02:45:34.502Z,2.61
2019-03-12T02:50:38.728Z,2.59
2019-03-12T02:55:42.967Z,2.62
2019-03-12T03:00:47.196Z,2.66
2019-03-12T03:06:07.107Z,2.71
2019-03-12T03:11:11.366Z,2.77
2019-03-12T03:16:15.603Z,2.78
2019-03-12T03:21:19.846Z,2.76
2019-03-12T03:26:24.087Z,2.78
2019-03-12T03:31:28.355Z,2.87
2019-03-12T03:36:32.665Z,2.86
2019-03-12T03:41:37.197Z,2.83
2019-03-12T03:46:41.448Z,2.91
2019-03-12T03:51:45.723Z,2.91
2019-03-12T03:56:49.957Z,2.91
2019-03-12T04:01:54.215Z,3.01
2019-03-12T04:06:58.452Z,3.08
2019-03-12T04:12:02.718Z,2.95
2019-03-12T04:17:06.958Z,2.90
2019-03-12T04:22:11.271Z,2.92
2019-03-12T04:27:15.466Z,3.00
2019-03-12T04:32:19.707Z,3.01
2019-03-12T04:37:23.943Z,3.07
2019-03-12T04:42:28.177Z,2.98
2019-03-12T04:47:32.850Z,2.93
2019-03-12T04:52:37.097Z,2.89
2019-03-12T04:57:41.345Z,2.91
2019-03-12T05:02:45.585Z,2.91
2019-03-12T05:07:49.805Z,2.93
2019-03-12T05:12:54.067Z,2.93
2019-03-12T05:17:58.298Z,2.92
2019-03-12T05:23:02.525Z,2.96
2019-03-12T05:28:06.835Z,2.98
2019-03-12T05:33:11.077Z,2.95
2019-03-12T05:38:15.307Z,2.88
2019-03-12T05:43:19.538Z,2.88
2019-03-12T05:48:23.772Z,2.97
2019-03-12T05:53:41.846Z,2.89
2019-03-12T05:58:46.116Z,2.90
2019-03-12T06:03:50.345Z,2.98
2019-03-12T06:08:54.569Z,2.86
2019-03-12T06:13:58.807Z,2.98
2019-03-12T06:19:03.046Z,2.96
2019-03-12T06:24:07.277Z,3.04
2019-03-12T06:29:11.519Z,3.03
2019-03-12T06:34:19.930Z,2.91
2019-03-12T06:39:30.503Z,2.82
2019-03-12T06:44:39.145Z,2.83
2019-03-12T06:50:05.290Z,3.05
2019-03-12T06:55:25.307Z,3.29
2019-03-12T07:00:51.363Z,3.92
2019-03-12T07:06:20.700Z,3.54
2019-03-12T07:11:59.062Z,3.24
2019-03-12T07:17:20.536Z,3.38
2019-03-12T07:22:43.732Z,3.36
2019-03-12T07:27:53.914Z,3.26
2019-03-12T07:33:24.453Z,3.41
2019-03-12T07:38:34.213Z,3.80
2019-03-12T07:43:48.485Z,3.54
2019-03-12T07:49:14.620Z,3.65
2019-03-12T07:54:47.200Z,3.83
2019-03-12T08:00:10.432Z,4.01
2019-03-12T08:05:32.420Z,4.01
2019-03-12T08:10:54.174Z,4.06
2019-03-12T08:16:20.529Z,4.03
2019-03-12T08:21:49.674Z,4.04
2019-03-12T08:27:11.502Z,4.07
2019-03-12T08:32:34.497Z,4.28
2019-03-12T08:38:03.750Z,4.39
2019-03-12T08:43:36.035Z,4.44
2019-03-12T08:49:05.748Z,4.40
2019-03-12T08:54:28.923Z,4.21
2019-03-12T08:59:52.088Z,4.34
2019-03-12T09:05:24.179Z,4.73
2019-03-12T09:10:33.954Z,4.64
2019-03-12T09:15:53.953Z,5.15
2019-03-12T09:21:10.175Z,5.26
2019-03-12T09:26:26.691Z,5.15
2019-03-12T09:31:50.156Z,5.06
2019-03-12T09:37:22.404Z,4.88
2019-03-12T09:42:48.385Z,5.28
2019-03-12T09:48:02.066Z,5.89
2019-03-12T09:53:25.243Z,6.68
2019-03-12T09:58:47.363Z,6.29
2019-03-12T10:04:13.472Z,6.73
2019-03-12T10:09:42.536Z,5.96
2019-03-12T10:15:09.629Z,6.43
2019-03-12T10:20:35.664Z,6.48
2019-03-12T10:25:48.729Z,6.02
2019-03-12T10:31:04.729Z,6.71
2019-03-12T10:36:18.724Z,6.68
2019-03-12T10:41:44.777Z,6.81
2019-03-12T10:46:56.048Z,7.38
2019-03-12T10:52:00.277Z,7.57
2019-03-12T10:57:04.508Z,7.51
2019-03-12T11:02:08.998Z,6.74
2019-03-12T11:07:16.660Z,6.73
2019-03-12T11:12:19.187Z,7.21
2019-03-12T11:17:23.458Z,7.19
2019-03-12T11:22:27.730Z,7.48
2019-03-12T11:27:32.001Z,7.63
2019-03-12T11:32:36.244Z,7.94
2019-03-12T11:37:40.547Z,9.10
2019-03-12T11:42:44.910Z,9.45
2019-03-12T11:47:49.414Z,9.51
2019-03-12T11:52:57.742Z,8.87
2019-03-12T11:57:59.751Z,8.94
2019-03-12T12:03:04.177Z,9.29
2019-03-12T12:08:08.408Z,9.26
2019-03-12T12:13:12.636Z,8.49
2019-03-12T12:18:16.850Z,8.98
2019-03-12T12:23:21.136Z,9.73
2019-03-12T12:28:25.377Z,9.97
2019-03-12T12:33:29.615Z,8.93
2019-03-12T12:38:33.834Z,10.51
2019-03-12T12:43:38.062Z,9.86
2019-03-12T12:48:42.295Z,11.07
2019-03-12T12:53:46.531Z,10.78
2019-03-12T12:58:50.752Z,9.33
2019-03-12T13:03:55.096Z,11.13
2019-03-12T13:08:59.328Z,10.09
2019-03-12T13:14:03.559Z,10.17
2019-03-12T13:19:07.821Z,10.53
2019-03-12T13:24:12.046Z,9.92
2019-03-12T13:29:16.313Z,9.55
2019-03-12T13:34:20.532Z,9.12
2019-03-12T13:39:24.834Z,9.15
2019-03-12T13:44:29.060Z,9.18
2019-03-12T13:49:33.284Z,9.25
2019-03-12T13:54:37.533Z,9.15
2019-03-12T13:59:41.765Z,9.30
2019-03-12T14:04:45.998Z,9.53
2019-03-12T14:09:50.241Z,10.50
2019-03-12T14:14:54.477Z,9.82
2019-03-12T14:20:22.656Z,9.10
2019-03-12T14:25:26.884Z,9.02
2019-03-12T14:30:31.160Z,8.92
2019-03-12T14:35:35.395Z,9.49
2019-03-12T14:40:39.647Z,9.43
2019-03-12T14:45:50.583Z,9.12
2019-03-12T14:50:54.807Z,9.10
2019-03-12T14:55:59.038Z,8.88
2019-03-12T15:01:03.265Z,8.71
2019-03-12T15:06:07.807Z,8.58
2019-03-12T15:11:12.040Z,8.79
2019-03-12T15:16:16.285Z,8.65
2019-03-12T15:21:21.409Z,8.73
2019-03-12T15:26:25.730Z,8.79
2019-03-12T15:31:29.972Z,8.81
2019-03-12T15:36:34.237Z,8.63
2019-03-12T15:41:38.492Z,8.67
2019-03-12T15:46:42.752Z,8.64
2019-03-12T15:51:47.091Z,8.41
2019-03-12T15:56:51.341Z,8.24
2019-03-12T16:01:55.570Z,8.29
2019-03-12T16:07:01.504Z,8.35
2019-03-12T16:12:05.961Z,8.33
2019-03-12T16:17:10.251Z,8.21
2019-03-12T16:22:14.501Z,8.21
2019-03-12T16:27:18.740Z,8.12
2019-03-12T16:32:22.982Z,8.07
2019-03-12T16:37:28.294Z,8.06
2019-03-12T16:42:35.258Z,7.93
2019-03-12T16:47:38.494Z,8.02
2019-03-12T16:52:42.744Z,7.90
2019-03-12T16:57:46.979Z,7.79
2019-03-12T17:02:51.291Z,7.73
2019-03-12T17:07:55.589Z,7.69
2019-03-12T17:12:59.969Z,7.70
2019-03-12T17:18:04.207Z,7.61
2019-03-12T17:23:08.435Z,7.62
2019-03-12T17:28:12.684Z,7.54
2019-03-12T17:33:16.964Z,7.46
2019-03-12T17:38:21.199Z,7.56
2019-03-12T17:43:25.433Z,7.47
2019-03-12T17:48:29.686Z,7.42
2019-03-12T17:53:33.917Z,7.40
2019-03-12T17:58:38.178Z,7.39
2019-03-12T18:03:42.523Z,7.31
2019-03-12T18:08:47.017Z,7.24
2019-03-12T18:13:51.285Z,7.25
2019-03-12T18:18:55.635Z,7.15
2019-03-12T18:23:59.880Z,7.14
2019-03-12T18:29:04.261Z,7.11
2019-03-12T18:34:08.509Z,7.04
2019-03-12T18:39:12.768Z,7.03
2019-03-12T18:44:17.016Z,6.98
2019-03-12T18:49:21.257Z,6.93
2019-03-12T18:54:25.845Z,6.88
2019-03-12T18:59:30.127Z,6.84
2019-03-12T19:04:34.373Z,6.85
2019-03-12T19:09:39.883Z,6.88
2019-03-12T19:14:44.272Z,6.87
2019-03-12T19:19:48.690Z,6.88
2019-03-12T19:24:53.261Z,6.86
2019-03-12T19:29:57.746Z,6.85
2019-03-12T19:35:02.412Z,6.87
2019-03-12T19:40:08.977Z,6.86
2019-03-12T19:45:13.997Z,6.89
2019-03-12T19:50:19.156Z,6.89
2019-03-12T19:55:27.338Z,6.83
2019-03-12T20:00:34.079Z,6.76
2019-03-12T20:05:39.746Z,6.73
2019-03-12T20:11:33.186Z,6.67
2019-03-12T20:17:13.686Z,6.59
2019-03-12T20:22:57.828Z,6.54
2019-03-12T20:28:57.446Z,6.52
2019-03-12T20:34:44.544Z,6.49
2019-03-12T20:40:38.515Z,6.51
2019-03-12T20:46:32.512Z,6.50
2019-03-12T20:52:27.045Z,6.52
2019-03-12T20:58:10.516Z,6.51
2019-03-12T21:04:05.096Z,6.53
2019-03-12T21:09:53.063Z,6.46
2019-03-12T21:15:26.633Z,6.45
2019-03-12T21:21:21.907Z,6.43
2019-03-12T21:27:02.177Z,6.41
2019-03-12T21:32:07.113Z,6.40
2019-03-12T21:37:11.946Z,6.41
2019-03-12T21:42:16.811Z,6.46
2019-03-12T21:47:21.214Z,6.43
2019-03-12T21:52:25.647Z,6.47
2019-03-12T21:57:29.937Z,6.51
2019-03-12T22:02:34.237Z,6.48
2019-03-12T22:07:38.511Z,6.47
2019-03-12T22:12:42.765Z,6.49
2019-03-12T22:17:46.994Z,6.53
2019-03-12T22:23:02.318Z,6.53
2019-03-12T22:28:06.554Z,6.54
2019-03-12T22:33:10.793Z,6.60
2019-03-12T22:38:15.114Z,6.62
2019-03-12T22:43:19.362Z,6.61
2019-03-12T22:48:23.598Z,6.59
2019-03-12T22:53:27.853Z,6.57
2019-03-12T22:58:32.242Z,6.60
2019-03-12T23:03:36.494Z,6.59
2019-03-12T23:08:41.243Z,6.62
2019-03-12T23:13:45.522Z,6.69
2019-03-12T23:18:49.751Z,6.77
2019-03-12T23:23:54.009Z,6.84
2019-03-12T23:28:58.255Z,6.95
2019-03-12T23:34:02.503Z,6.96
2019-03-12T23:39:09.027Z,7.11
2019-03-12T23:44:13.261Z,7.16
2019-03-12T23:49:18.301Z,7.17
2019-03-12T23:54:22.523Z,7.31
2019-03-12T23:59:26.754Z,7.41
